Brokaw, Wisconsin
Current Conditions -  °F | °C
As of 6:54 PM on Monday 24 Nov 2014 (Local Time) from KAUW Reporting Station
Light Snow Light Snow  
Wind Chill: 12°   Ceiling: 1100
Heat Index: 24°   Visibility: 0.75mi
Dew Point: 21°   Wind: 13mph
Humidity: 88%   Direction: 320°NW
Pressure: 29.49"   Gusts: 25mph
Location:  45.03°N, 89.65°W
Report Text: KAUW 250054Z AUTO 32011G22KT 3/4SM -SN BR VV011 M04/M06 A2949 RMK AO2 PK WND 34026/2358 SLP004 P0000 T10441061
Loading
Personal Weather Stations






























Interactive Weather Map New forecast layout! Learn more

10-Day Weather Forecast

Advertisements
Track Severe Weather on mobile